Latest Coastal Weather Observations for Robe Airport

IDS60701

Issued at 10:01 am CDT Monday 27 February 2017 (issued every 10 minutes, with the page automatically refreshed every 10 minutes)

About coastal observations | Map of coastal stations | Coastal observations for SA | Marine services | Other Formats
Station Details ID: 026105 Name: ROBE AIRFIELD Lat: -37.18 Lon: 139.81 Height: 3.0 m
Data from the previous 72 hours. | See also: Recent months at Robe Airport
Date/Time
CDT
Temp
°C
Wind Pressure Rain since
9am
mm
Weather Cloud Vis
km
Sea
Height
m
Swell
Dir  Spd
kts
Gust
kts
hPa Trend Height
m
Period
s
Dir
27/10:00am 21.9 SE 4 5 1019.9 - 0.0 - - - - - - -
27/09:30am 19.8 SSE 4 7 1019.9 - 0.0 - - - - - - -
27/09:00am 18.0 SSE 5 7 1019.9 - 0.0 - - - - - - -
27/08:30am 17.4 SE 3 4 1019.7 - 0.0 - - - - - - -
27/08:00am 15.5 S 4 6 1019.6 - 0.0 - - - - - - -
27/07:30am 14.5 SE 3 4 1019.4 - 0.0 - - - - - - -
27/07:00am 13.9 SE 3 4 1019.2 - 0.0 - - - - - - -
27/06:30am 14.3 SE 4 5 1019.0 - 0.0 - - - - - - -
27/06:00am 14.0 SE 4 5 1019.0 - 0.0 - - - - - - -
27/05:30am 14.1 SSE 5 7 1018.9 - 0.0 - - - - - - -
27/05:00am 13.1 SSE 5 6 1018.7 - 0.0 - - - - - - -
27/04:30am 11.5 S 5 6 1018.5 - 0.0 - - - - - - -
27/04:00am 11.6 S 4 5 1018.6 - 0.0 - - - - - - -
27/03:30am 12.3 S 5 6 1018.6 - 0.0 - - - - - - -
27/03:00am 12.4 SSE 4 5 1018.8 - 0.0 - - - - - - -
27/02:30am 13.4 S 4 5 1019.0 - 0.0 - - - - - - -
27/02:00am 13.6 S 5 6 1019.1 - 0.0 - - - - - - -
27/01:30am 14.2 S 5 7 1019.5 - 0.0 - - - - - - -
27/01:00am 13.9 S 5 6 1019.6 - 0.0 - - - - - - -
27/12:30am 14.9 S 6 7 1019.8 - 0.0 - - - - - - -
27/12:00am 14.8 S 5 7 1019.9 - 0.0 - - - - - - -
 
Date/Time
CDT
Temp
°C
Wind Pressure Rain since
9am
mm
Weather Cloud Vis
km
Sea
Height
m
Swell
Dir  Spd
kts
Gust
kts
hPa Trend Height
m
Period
s
Dir
26/11:30pm 15.5 S 6 8 1020.0 - 0.0 - - - - - - -
26/11:00pm 16.1 SSE 7 10 1020.0 - 0.0 - - - - - - -
26/10:30pm 16.3 SSE 9 12 1020.0 - 0.0 - - - - - - -
26/10:00pm 16.4 SSE 10 14 1020.1 - 0.0 - - - - - - -
26/09:30pm 16.5 SSE 11 15 1019.9 - 0.0 - - - - - - -
26/09:00pm 16.6 SSE 11 14 1019.5 - 0.0 - - - - - - -
26/08:30pm 16.7 SSE 10 14 1019.3 - 0.0 - - - - - - -
26/08:00pm 17.2 SSE 11 14 1019.1 - 0.0 - - - - - - -
26/07:30pm 18.1 SSE 12 16 1018.9 - 0.0 - - - - - - -
26/07:00pm 18.9 SSE 14 19 1018.7 - 0.0 - - - - - - -
26/06:30pm 19.8 S 14 18 1018.5 - 0.0 - - - - - - -
26/06:00pm 20.6 S 13 18 1018.5 - 0.0 - - - - - - -
26/05:30pm 21.6 S 13 18 1018.4 - 0.0 - - - - - - -
26/05:00pm 21.8 S 13 17 1018.1 - 0.0 - - - - - - -
26/04:30pm 22.4 S 13 16 1018.1 - 0.0 - - - - - - -
26/04:00pm 22.4 S 13 18 1018.2 - 0.0 - - - - - - -
26/03:30pm 22.1 S 14 19 1018.4 - 0.0 - - - - - - -
26/03:00pm 22.5 S 13 17 1018.8 - 0.0 - - - - - - -
26/02:30pm 22.0 S 13 18 1019.1 - 0.0 - - - - - - -
26/02:00pm 21.8 SSW 13 17 1019.3 - 0.0 - - - - - - -
26/01:30pm 21.9 SSW 13 17 1019.5 - 0.0 - - - - - - -
26/01:00pm 22.7 SSW 11 16 1019.7 - 0.0 - - - - - - -
26/12:30pm 22.1 S 10 14 1019.9 - 0.0 - - - - - - -
26/12:00pm 22.1 SSE 8 13 1020.3 - 0.0 - - - - - - -
26/11:30am 22.4 SE 7 11 1020.6 - 0.0 - - - - - - -
26/11:00am 21.2 SE 7 12 1020.8 - 0.0 - - - - - - -
26/10:30am 19.7 SSE 10 13 1020.9 - 0.0 - - - - - - -
26/10:00am 19.1 SSE 9 14 1021.1 - 0.0 - - - - - - -
26/09:30am 17.9 SSE 8 11 1021.3 - 0.0 - - - - - - -
26/09:00am 16.9 SSE 8 10 1021.5 - 0.0 - - - - - - -
26/08:30am 15.6 SE 8 11 1021.5 - 0.0 - - - - - - -
26/08:00am 13.3 SSE 4 6 1021.9 - 0.0 - - - - - - -
26/07:30am 11.3 SSE 3 4 1021.8 - 0.0 - - - - - - -
26/07:00am 11.9 SSE 5 6 1021.4 - 0.0 - - - - - - -
26/06:30am 11.6 SE 5 6 1021.2 - 0.0 - - - - - - -
26/06:00am 11.0 SSE 5 7 1021.1 - 0.0 - - - - - - -
26/05:30am 10.4 SSE 5 7 1021.1 - 0.0 - - - - - - -
26/05:00am 10.6 SSE 4 6 1021.3 - 0.0 - - - - - - -
26/04:30am 10.8 SSE 5 7 1021.4 - 0.0 - - - - - - -
26/04:00am 10.9 SSE 7 9 1021.5 - 0.0 - - - - - - -
26/03:30am 10.5 SSE 7 8 1021.7 - 0.0 - - - - - - -
26/03:00am 10.0 SSE 6 8 1021.8 - 0.0 - - - - - - -
26/02:30am 9.5 SSE 3 4 1022.2 - 0.0 - - - - - - -
26/02:00am 9.7 SSE 3 4 1022.5 - 0.0 - - - - - - -
26/01:30am 10.9 SE 5 7 1022.9 - 0.0 - - - - - - -
26/01:00am 11.3 SE 6 9 1023.2 - 0.0 - - - - - - -
26/12:30am 11.6 SE 6 9 1023.7 - 0.0 - - - - - - -
26/12:00am 12.3 SE 8 11 1023.8 - 0.0 - - - - - - -
 
Date/Time
CDT
Temp
°C
Wind Pressure Rain since
9am
mm
Weather Cloud Vis
km
Sea
Height
m
Swell
Dir  Spd
kts
Gust
kts
hPa Trend Height
m
Period
s
Dir
25/11:30pm 12.6 SE 9 12 1024.1 - 0.0 - - - - - - -
25/11:00pm 12.9 SE 10 15 1024.2 - 0.0 - - - - - - -
25/10:30pm 13.2 SE 10 16 1024.4 - 0.0 - - - - - - -
25/10:00pm 13.7 SE 12 20 1024.2 - 0.0 - - - - - - -
25/09:30pm 14.0 SE 12 18 1024.2 - 0.0 - - - - - - -
25/09:00pm 14.5 SSE 13 19 1024.0 - 0.0 - - - - - - -
25/08:30pm 14.4 SSE 14 23 1023.9 - 0.0 - - - - - - -
25/08:00pm 14.4 SSE 14 19 1023.9 - 0.0 - - - - - - -
25/07:30pm 15.2 SSE 14 19 1023.6 - 0.0 - - - - - - -
25/07:00pm 16.2 SSE 17 25 1023.4 - 0.0 - - - - - - -
25/06:30pm 16.5 SSE 16 21 1023.5 - 0.0 - - - - - - -
25/06:00pm 16.9 SSE 17 23 1023.6 - 0.0 - - - - - - -
25/05:30pm 17.7 S 19 26 1023.6 - 0.0 - - - - - - -
25/05:00pm 17.9 SSE 16 24 1023.5 - 0.0 - - - - - - -
25/04:30pm 19.0 S 17 23 1023.8 - 0.0 - - - - - - -
25/04:00pm 18.8 SSE 17 24 1024.1 - 0.0 - - - - - - -
25/03:30pm 18.8 S 18 25 1024.5 - 0.0 - - - - - - -
25/03:00pm 19.5 SSE 16 22 1024.6 - 0.0 - - - - - - -
25/02:30pm 19.0 SSE 18 26 1024.9 - 0.0 - - - - - - -
25/02:00pm 19.7 SSE 15 22 1025.1 - 0.0 - - - - - - -
25/01:30pm 19.6 SSE 15 21 1025.2 - 0.0 - - - - - - -
25/01:00pm 19.6 SSE 15 20 1025.5 - 0.0 - - - - - - -
25/12:30pm 20.0 SE 13 19 1025.9 - 0.0 - - - - - - -
25/12:00pm 19.2 SSE 13 17 1026.1 - 0.0 - - - - - - -
25/11:30am 19.5 SE 11 17 1026.4 - 0.0 - - - - - - -
25/11:00am 19.5 SE 11 15 1026.5 - 0.0 - - - - - - -
25/10:30am 17.5 SSE 11 16 1026.7 - 0.0 - - - - - - -
25/10:00am 18.2 SE 10 14 1026.6 - 0.0 - - - - - - -
25/09:30am 17.8 SE 10 14 1026.5 - 0.0 - - - - - - -
25/09:00am 16.3 SSE 9 14 1026.5 - 0.0 - - - - - - -
25/08:30am 16.8 SSE 12 17 1026.5 - 0.0 - - - - - - -
25/08:00am 15.6 SSE 8 12 1026.5 - 0.0 - - - - - - -
25/07:30am 15.3 SSE 10 13 1026.4 - 0.0 - - - - - - -
25/07:00am 15.1 SSE 7 10 1026.4 - 0.0 - - - - - - -
25/06:30am 14.7 SSE 5 8 1025.9 - 0.0 - - - - - - -
25/06:00am 14.4 SE 4 5 1025.7 - 0.0 - - - - - - -
25/05:30am 14.7 SSE 4 6 1025.8 - 0.0 - - - - - - -
25/05:00am 15.0 SSE 5 8 1025.9 - 0.0 - - - - - - -
25/04:30am 15.2 SE 6 9 1025.8 - 0.0 - - - - - - -
25/04:00am 15.3 SE 8 11 1025.6 - 0.0 - - - - - - -
25/03:30am 15.3 SE 7 10 1025.8 - 0.0 - - - - - - -
25/03:00am 15.1 SSE 6 8 1025.9 - 0.0 - - - - - - -
25/02:30am 15.0 SSE 6 9 1026.2 - 0.0 - - - - - - -
25/02:00am 15.2 SE 5 10 1026.3 - 0.0 - - - - - - -
25/01:30am 14.7 SE 5 7 1026.5 - 0.0 - - - - - - -
25/01:00am 15.2 SSE 3 5 1026.7 - 0.0 - - - - - - -
25/12:30am 15.0 SSE 5 7 1026.9 - 0.0 - - - - - - -
25/12:00am 15.4 SE 4 7 1027.0 - 0.0 - - - - - - -
 
Date/Time
CDT
Temp
°C
Wind Pressure Rain since
9am
mm
Weather Cloud Vis
km
Sea
Height
m
Swell
Dir  Spd
kts
Gust
kts
hPa Trend Height
m
Period
s
Dir
24/11:30pm 15.3 SE 6 8 1027.0 - 0.0 - - - - - - -
24/11:00pm 15.0 SSE 7 10 1027.2 - 0.0 - - - - - - -
24/10:30pm 13.6 S 6 8 1027.2 - 0.0 - - - - - - -
24/10:00pm 13.8 SSE 7 10 1027.2 - 0.0 - - - - - - -
24/09:30pm 14.1 SSE 7 9 1027.2 - 0.0 - - - - - - -
24/09:00pm 15.2 S 7 9 1027.0 - 0.0 - - - - - - -
24/08:30pm 16.4 SSE 10 14 1026.9 - 0.0 - - - - - - -
24/08:00pm 15.8 SSE 9 14 1026.6 - 0.0 - - - - - - -
24/07:30pm 16.5 SSE 10 15 1026.4 - 0.0 - - - - - - -
24/07:00pm 17.4 S 13 17 1026.2 - 0.0 - - - - - - -
24/06:30pm 18.3 S 14 18 1026.2 - 0.0 - - - - - - -
24/06:00pm 18.5 S 13 20 1026.1 - 0.0 - - - - - - -
24/05:30pm 18.2 S 13 18 1026.1 - 0.0 - - - - - - -
24/05:00pm 19.2 S 15 21 1025.9 - 0.0 - - - - - - -
24/04:30pm 18.9 S 14 20 1026.0 - 0.0 - - - - - - -
24/04:00pm 19.0 S 12 17 1026.1 - 0.0 - - - - - - -
24/03:30pm 18.8 S 13 17 1026.1 - 0.0 - - - - - - -
24/03:00pm 19.4 S 13 18 1026.4 - 0.0 - - - - - - -
24/02:30pm 19.9 S 13 19 1026.6 - 0.0 - - - - - - -
24/02:00pm 19.6 S 12 18 1026.7 - 0.0 - - - - - - -
24/01:30pm 18.7 S 13 18 1026.9 - 0.0 - - - - - - -
24/01:00pm 18.5 S 14 19 1026.9 - 0.0 - - - - - - -
24/12:30pm 18.6 S 12 17 1027.1 - 0.0 - - - - - - -
24/12:00pm 19.3 S 11 15 1027.2 - 0.0 - - - - - - -
24/11:30am 18.4 SSW 11 14 1027.3 - 0.0 - - - - - - -
24/11:00am 18.2 SSW 12 15 1027.3 - 0.0 - - - - - - -
24/10:30am 18.2 SSW 11 15 1027.2 - 0.0 - - - - - - -

Other Formats:

Comma delimited format used in spreadsheet applications
http://www.bom.gov.au/fwo/IDS60701/IDS60701.95816.axf

JavaScript Object Notation format (JSON) in row-major order
http://www.bom.gov.au/fwo/IDS60701/IDS60701.95816.json